Time;durP1;ratioP1;P1;durP2;ratioP2;P2;SDS_P1;SDS_P2;PMS_P1;PMS_P2;Temp;Humidity;BMP_temperature;BMP_pressure;BME280_temperature;BME280_humidity;BME280_pressure;Samples;Min_cycle;Max_cycle;Signal;HPM_P1;HPM_P2
2023/10/29 00:00:30;;;;;;;1999.90;999.90;;;14.80;99.90;;;;;;5071912;28;20518;-68
2023/10/29 00:02:55;;;;;;;1999.90;999.90;;;14.80;99.90;;;;;;5072200;28;20655;-68
2023/10/29 00:05:21;;;;;;;1999.90;999.90;;;14.90;99.90;;;;;;5072202;28;20176;-68
2023/10/29 00:07:47;;;;;;;1999.90;999.90;;;14.90;99.90;;;;;;5071957;28;20180;-68
2023/10/29 00:10:12;;;;;;;1999.90;999.90;;;14.90;99.90;;;;;;5072073;28;20271;-68
2023/10/29 00:12:38;;;;;;;1999.90;999.90;;;14.90;99.90;;;;;;5071685;28;20448;-68
2023/10/29 00:15:05;;;;;;;1999.90;999.90;;;14.90;99.90;;;;;;5071471;28;20249;-68
2023/10/29 00:17:31;;;;;;;1999.90;999.90;;;15.00;99.90;;;;;;5071868;28;20166;-68
2023/10/29 00:19:59;;;;;;;1999.90;999.90;;;15.00;99.90;;;;;;5071756;28;20488;-68
2023/10/29 00:22:25;;;;;;;1999.90;999.90;;;15.10;99.90;;;;;;5071928;28;20420;-68
2023/10/29 00:24:51;;;;;;;1999.90;999.90;;;15.10;99.90;;;;;;5071834;28;20401;-68
2023/10/29 00:27:16;;;;;;;1999.90;999.90;;;15.10;99.90;;;;;;5071801;28;20405;-68
2023/10/29 00:29:42;;;;;;;1999.90;999.90;;;15.10;99.90;;;;;;5071780;28;20186;-68
2023/10/29 00:32:08;;;;;;;1999.90;999.90;;;15.10;99.90;;;;;;5071575;28;20564;-68
2023/10/29 00:34:33;;;;;;;1999.90;999.90;;;15.10;99.90;;;;;;5071801;28;20174;-66
2023/10/29 00:36:59;;;;;;;1999.90;999.90;;;15.00;99.90;;;;;;5071669;28;20218;-66
2023/10/29 00:39:25;;;;;;;1999.90;999.90;;;15.10;99.90;;;;;;5072069;28;20195;-67
2023/10/29 00:41:50;;;;;;;1999.90;999.90;;;15.10;99.90;;;;;;5071503;28;20163;-67
2023/10/29 00:44:16;;;;;;;1999.90;999.90;;;15.10;99.90;;;;;;5071753;28;20203;-67
2023/10/29 00:46:42;;;;;;;1999.90;999.90;;;15.10;99.90;;;;;;5071683;28;20161;-66
2023/10/29 00:49:08;;;;;;;1999.90;999.90;;;15.20;99.90;;;;;;5071548;28;20167;-67
2023/10/29 00:51:34;;;;;;;1999.90;999.90;;;15.00;99.90;;;;;;5071664;28;20492;-66
2023/10/29 00:54:00;;;;;;;1999.90;999.90;;;15.10;99.90;;;;;;5071500;28;20547;-67
2023/10/29 00:56:26;;;;;;;1999.90;999.90;;;15.00;99.90;;;;;;5071642;28;20476;-66
2023/10/29 00:58:52;;;;;;;1999.90;999.90;;;15.00;99.90;;;;;;5071601;28;20168;-67
2023/10/29 01:01:17;;;;;;;1999.90;999.90;;;15.00;99.90;;;;;;5071347;28;20418;-67
2023/10/29 01:03:43;;;;;;;1999.90;999.90;;;15.00;99.90;;;;;;5071505;28;20789;-67
2023/10/29 01:06:10;;;;;;;1999.90;999.90;;;15.00;99.90;;;;;;5071432;28;20168;-68
2023/10/29 01:08:36;;;;;;;1999.90;999.90;;;15.00;99.90;;;;;;5071476;28;20544;-66
2023/10/29 01:11:04;;;;;;;1999.90;999.90;;;15.10;99.90;;;;;;5071071;28;20472;-66
2023/10/29 01:13:29;;;;;;;1999.90;999.90;;;15.10;99.90;;;;;;5071246;28;20493;-66
2023/10/29 01:15:55;;;;;;;1999.90;999.90;;;15.10;99.90;;;;;;5071392;28;20431;-67
2023/10/29 01:18:21;;;;;;;1999.90;999.90;;;15.20;99.90;;;;;;5071324;28;20170;-67
2023/10/29 01:20:46;;;;;;;1999.90;999.90;;;15.20;99.90;;;;;;5071030;28;20280;-67
2023/10/29 01:23:12;;;;;;;1999.90;999.90;;;15.20;99.90;;;;;;5071436;28;20179;-67
2023/10/29 01:25:38;;;;;;;1999.90;999.90;;;15.20;99.90;;;;;;5071735;28;20180;-66
2023/10/29 01:28:05;;;;;;;1999.90;999.90;;;15.20;99.90;;;;;;5074978;28;20426;-67
2023/10/29 01:30:30;;;;;;;1999.90;999.90;;;15.20;99.90;;;;;;5074647;28;20483;-67
2023/10/29 01:32:56;;;;;;;1999.90;999.90;;;15.10;99.90;;;;;;5074820;28;20448;-66
2023/10/29 01:35:21;;;;;;;1999.90;999.90;;;15.10;99.90;;;;;;5075147;28;20171;-67
2023/10/29 01:37:48;;;;;;;1999.90;999.90;;;15.10;99.90;;;;;;5074786;28;20638;-68
2023/10/29 01:40:13;;;;;;;1999.90;999.90;;;15.10;99.90;;;;;;5074776;28;20234;-67
2023/10/29 01:42:39;;;;;;;1999.90;999.90;;;15.10;99.90;;;;;;5074543;28;20407;-66
2023/10/29 01:45:05;;;;;;;1999.90;999.90;;;15.10;99.90;;;;;;5074650;28;20256;-66
2023/10/29 01:47:30;;;;;;;1999.90;999.90;;;15.10;99.90;;;;;;5074647;28;20186;-66
2023/10/29 01:49:56;;;;;;;1999.90;999.90;;;15.30;99.90;;;;;;5074545;28;20253;-67
2023/10/29 01:52:21;;;;;;;1999.90;999.90;;;15.30;99.90;;;;;;5074308;28;20197;-67
2023/10/29 01:54:47;;;;;;;1999.90;999.90;;;15.30;99.90;;;;;;5074687;28;20213;-66
2023/10/29 01:57:13;;;;;;;1999.90;999.90;;;15.30;99.90;;;;;;5074573;28;20686;-66
2023/10/29 01:59:38;;;;;;;1999.90;999.90;;;15.20;99.90;;;;;;5074472;28;20503;-67
2023/10/29 02:02:04;;;;;;;1999.90;999.90;;;15.10;99.90;;;;;;5074164;28;20535;-67
2023/10/29 02:04:32;;;;;;;1999.90;999.90;;;15.00;99.90;;;;;;5074332;28;20170;-67
2023/10/29 02:06:57;;;;;;;1999.90;999.90;;;14.90;99.90;;;;;;5074400;28;20181;-69
2023/10/29 02:09:23;;;;;;;1999.90;999.90;;;14.90;99.90;;;;;;5074248;28;20430;-66
2023/10/29 02:11:49;;;;;;;1999.90;999.90;;;14.90;99.90;;;;;;5073822;28;20197;-66
2023/10/29 02:14:14;;;;;;;1999.90;999.90;;;14.90;99.90;;;;;;5074195;28;20410;-67
2023/10/29 02:16:40;;;;;;;1999.90;999.90;;;14.90;99.90;;;;;;5074089;28;20160;-66
2023/10/29 02:19:06;;;;;;;1999.90;999.90;;;15.10;99.90;;;;;;5073923;28;20637;-67
2023/10/29 02:21:34;;;;;;;1999.90;999.90;;;15.00;99.90;;;;;;5073837;28;20411;-69
2023/10/29 02:24:01;;;;;;;1999.90;999.90;;;15.10;99.90;;;;;;5073949;28;20843;-66
2023/10/29 02:26:27;;;;;;;1999.90;999.90;;;15.10;99.90;;;;;;5074073;28;20405;-67
2023/10/29 02:28:52;;;;;;;1999.90;999.90;;;15.10;99.90;;;;;;5073853;28;20499;-67
2023/10/29 02:31:21;;;;;;;1999.90;999.90;;;15.10;99.90;;;;;;5073609;28;20527;-68
2023/10/29 02:33:47;;;;;;;1999.90;999.90;;;15.10;99.90;;;;;;5073701;28;20239;-67
2023/10/29 02:36:14;;;;;;;1999.90;999.90;;;15.10;99.90;;;;;;5073924;28;20402;-67
2023/10/29 02:38:43;;;;;;;1999.90;999.90;;;15.10;99.90;;;;;;5073193;28;20412;-67
2023/10/29 02:41:08;;;;;;;1999.90;999.90;;;15.10;99.90;;;;;;5073441;28;20435;-67
2023/10/29 02:43:34;;;;;;;1999.90;999.90;;;15.00;99.90;;;;;;5073645;28;20419;-69
2023/10/29 02:46:00;;;;;;;1999.90;999.90;;;15.00;99.90;;;;;;5073517;28;20168;-67
2023/10/29 02:48:26;;;;;;;1999.90;999.90;;;15.00;99.90;;;;;;5073652;28;20175;-66
2023/10/29 02:50:53;;;;;;;1999.90;999.90;;;15.00;99.90;;;;;;5073279;28;20419;-67
2023/10/29 02:53:19;;;;;;;1999.90;999.90;;;15.00;99.90;;;;;;5073485;28;20370;-66
2023/10/29 02:55:44;;;;;;;1999.90;999.90;;;15.00;99.90;;;;;;5073383;28;20957;-68
2023/10/29 02:58:10;;;;;;;1999.90;999.90;;;15.00;99.90;;;;;;5073321;28;20195;-66
2023/10/29 03:00:35;;;;;;;1999.90;999.90;;;14.90;99.90;;;;;;5073133;28;20215;-66
2023/10/29 03:03:01;;;;;;;1999.90;999.90;;;15.00;99.90;;;;;;5073152;28;20199;-66
2023/10/29 03:05:27;;;;;;;1999.90;999.90;;;15.00;99.90;;;;;;5073377;28;20178;-67
2023/10/29 03:07:53;;;;;;;1999.90;999.90;;;15.00;99.90;;;;;;5073069;28;20443;-68
2023/10/29 03:10:19;;;;;;;1999.90;999.90;;;15.00;99.90;;;;;;5072993;28;20212;-68
2023/10/29 03:12:44;;;;;;;1999.90;999.90;;;15.00;99.90;;;;;;5072783;28;20433;-67
2023/10/29 03:15:10;;;;;;;1999.90;999.90;;;15.00;99.90;;;;;;5073429;28;20257;-70
2023/10/29 03:17:36;;;;;;;1999.90;999.90;;;15.10;99.90;;;;;;5073277;28;20199;-70
2023/10/29 03:20:01;;;;;;;1999.90;999.90;;;15.10;99.90;;;;;;5073177;28;20241;-69
2023/10/29 03:22:27;;;;;;;1999.90;999.90;;;15.10;99.90;;;;;;5073033;28;20197;-67
2023/10/29 03:24:52;;;;;;;1999.90;999.90;;;15.00;99.90;;;;;;5073022;28;20544;-70
2023/10/29 03:27:18;;;;;;;1999.90;999.90;;;15.10;99.90;;;;;;5073126;28;20175;-69
2023/10/29 03:29:43;;;;;;;1999.90;999.90;;;15.10;99.90;;;;;;5073122;28;20194;-69
2023/10/29 03:32:09;;;;;;;1999.90;999.90;;;15.10;99.90;;;;;;5072869;28;20703;-66
2023/10/29 03:34:35;;;;;;;1999.90;999.90;;;15.10;99.90;;;;;;5073188;28;20172;-69
2023/10/29 03:37:01;;;;;;;1999.90;999.90;;;15.10;99.90;;;;;;5072833;28;20178;-67
2023/10/29 03:39:29;;;;;;;1999.90;999.90;;;15.10;99.90;;;;;;5072694;28;20420;-69
2023/10/29 03:41:55;;;;;;;1999.90;999.90;;;15.20;99.90;;;;;;5072437;28;20552;-69
2023/10/29 03:44:21;;;;;;;1999.90;999.90;;;15.20;99.90;;;;;;5072542;28;20475;-69
2023/10/29 03:46:51;;;;;;;1999.90;999.90;;;15.30;99.90;;;;;;5072660;28;20397;-69
2023/10/29 03:49:17;;;;;;;1999.90;999.90;;;15.40;99.90;;;;;;5071709;28;20674;-69
2023/10/29 03:51:47;;;;;;;1999.90;999.90;;;15.40;99.90;;;;;;5072293;28;20975;-69
2023/10/29 03:54:13;;;;;;;1999.90;999.90;;;15.40;99.90;;;;;;5072636;28;20403;-69
2023/10/29 03:56:39;;;;;;;1999.90;999.90;;;15.50;99.90;;;;;;5072460;28;20401;-69
2023/10/29 03:59:05;;;;;;;1999.90;999.90;;;15.50;99.90;;;;;;5072191;28;20218;-69
2023/10/29 04:01:30;;;;;;;1999.90;999.90;;;15.60;99.90;;;;;;5072229;28;20741;-68
2023/10/29 04:03:56;;;;;;;1999.90;999.90;;;15.60;99.90;;;;;;5072350;28;20400;-69
2023/10/29 04:06:22;;;;;;;1999.90;999.90;;;15.60;99.90;;;;;;5072247;28;20663;-69
2023/10/29 04:08:47;;;;;;;1999.90;999.90;;;15.70;99.90;;;;;;5072547;28;20172;-69
2023/10/29 04:11:13;;;;;;;1999.90;999.90;;;15.70;99.90;;;;;;5071974;28;20198;-69
2023/10/29 04:13:39;;;;;;;1999.90;999.90;;;15.70;99.90;;;;;;5072113;28;20262;-69
2023/10/29 04:16:05;;;;;;;1999.90;999.90;;;15.80;99.90;;;;;;5072071;28;20407;-69
2023/10/29 04:18:31;;;;;;;1999.90;999.90;;;15.70;99.90;;;;;;5072219;28;20745;-70
2023/10/29 04:20:58;;;;;;;1999.90;999.90;;;15.80;99.90;;;;;;5071950;28;20257;-67
2023/10/29 04:23:23;;;;;;;1999.90;999.90;;;15.80;99.90;;;;;;5072194;28;20426;-69
2023/10/29 04:25:49;;;;;;;1999.90;999.90;;;15.90;99.90;;;;;;5072154;28;20420;-69
2023/10/29 04:28:15;;;;;;;1999.90;999.90;;;15.90;99.90;;;;;;5072044;28;20280;-69
2023/10/29 04:30:40;;;;;;;1999.90;999.90;;;15.90;99.90;;;;;;5071995;28;20248;-69
2023/10/29 04:33:07;;;;;;;1999.90;999.90;;;15.90;99.90;;;;;;5072145;28;20209;-67
2023/10/29 04:35:33;;;;;;;1999.90;999.90;;;16.00;99.90;;;;;;5072297;28;20283;-69
2023/10/29 04:37:59;;;;;;;1999.90;999.90;;;16.00;99.90;;;;;;5072202;28;20551;-69
2023/10/29 04:40:24;;;;;;;1999.90;999.90;;;16.00;99.90;;;;;;5071911;28;20197;-68
2023/10/29 04:42:50;;;;;;;1999.90;999.90;;;15.90;99.90;;;;;;5072303;28;20204;-69
2023/10/29 04:45:15;;;;;;;1999.90;999.90;;;15.90;99.90;;;;;;5072067;28;20203;-69
2023/10/29 04:47:41;;;;;;;1999.90;999.90;;;15.90;99.90;;;;;;5072099;28;20529;-69
2023/10/29 04:50:07;;;;;;;1999.90;999.90;;;15.90;99.90;;;;;;5071919;28;20205;-69
2023/10/29 04:52:33;;;;;;;1999.90;999.90;;;15.90;99.90;;;;;;5071671;28;20225;-68
2023/10/29 04:55:01;;;;;;;1999.90;999.90;;;15.80;99.90;;;;;;5071824;28;20179;-68
2023/10/29 04:57:28;;;;;;;1999.90;999.90;;;15.80;99.90;;;;;;5071882;28;20500;-68
2023/10/29 04:59:53;;;;;;;1999.90;999.90;;;15.80;99.90;;;;;;5071908;28;20535;-69
2023/10/29 05:02:19;;;;;;;1999.90;999.90;;;15.80;99.90;;;;;;5075054;28;20413;-69
2023/10/29 05:04:44;;;;;;;1999.90;999.90;;;15.80;99.90;;;;;;5075989;28;20608;-70
2023/10/29 05:07:10;;;;;;;1999.90;999.90;;;15.80;99.90;;;;;;5075668;28;20171;-69
2023/10/29 05:09:35;;;;;;;1999.90;999.90;;;15.80;99.90;;;;;;5075564;28;20224;-69
2023/10/29 05:12:02;;;;;;;1999.90;999.90;;;15.90;99.90;;;;;;5075423;28;20250;-69
2023/10/29 05:14:27;;;;;;;1999.90;999.90;;;15.90;99.90;;;;;;5075869;28;20314;-69
2023/10/29 05:16:53;;;;;;;1999.90;999.90;;;15.80;99.90;;;;;;5075477;28;20491;-67
2023/10/29 05:19:19;;;;;;;1999.90;999.90;;;15.80;99.90;;;;;;5075260;28;20731;-70
2023/10/29 05:21:44;;;;;;;1999.90;999.90;;;15.80;99.90;;;;;;5075264;28;20169;-70
2023/10/29 05:24:10;;;;;;;1999.90;999.90;;;15.70;99.90;;;;;;5075253;28;20178;-69
2023/10/29 05:26:37;;;;;;;1999.90;999.90;;;15.70;99.90;;;;;;5075319;28;20186;-69
2023/10/29 05:29:03;;;;;;;1999.90;999.90;;;15.40;99.90;;;;;;5075476;28;20185;-69
2023/10/29 05:31:29;;;;;;;1999.90;999.90;;;15.60;99.90;;;;;;5075045;28;20981;-69
2023/10/29 05:33:54;;;;;;;1999.90;999.90;;;15.60;99.90;;;;;;5075178;28;20454;-69
2023/10/29 05:36:20;;;;;;;1999.90;999.90;;;15.60;99.90;;;;;;5075252;28;20327;-69
2023/10/29 05:38:46;;;;;;;1999.90;999.90;;;15.60;99.90;;;;;;5075197;28;20169;-69
2023/10/29 05:41:11;;;;;;;1999.90;999.90;;;15.60;99.90;;;;;;5074729;28;20251;-68
2023/10/29 05:43:37;;;;;;;1999.90;999.90;;;15.60;99.90;;;;;;5075044;28;20172;-69
2023/10/29 05:46:03;;;;;;;1999.90;999.90;;;15.50;99.90;;;;;;5074943;28;20173;-69
2023/10/29 05:48:28;;;;;;;1999.90;999.90;;;15.60;99.90;;;;;;5075051;28;20847;-69
2023/10/29 05:50:54;;;;;;;1999.90;999.90;;;15.60;99.90;;;;;;5074770;28;20460;-69
2023/10/29 05:53:19;;;;;;;1999.90;999.90;;;15.60;99.90;;;;;;5074583;28;20194;-68
2023/10/29 05:55:45;;;;;;;1999.90;999.90;;;15.60;99.90;;;;;;5074922;28;20175;-69
2023/10/29 05:58:11;;;;;;;1999.90;999.90;;;15.60;99.90;;;;;;5074904;28;20164;-69
2023/10/29 06:00:36;;;;;;;1999.90;999.90;;;15.50;99.90;;;;;;5074476;28;20241;-69
2023/10/29 06:03:02;;;;;;;1999.90;999.90;;;15.60;99.90;;;;;;5074840;28;20649;-68
2023/10/29 06:05:28;;;;;;;1999.90;999.90;;;15.50;99.90;;;;;;5074670;28;20695;-69
2023/10/29 06:07:54;;;;;;;1999.90;999.90;;;15.50;99.90;;;;;;5074588;28;20656;-69
2023/10/29 06:10:19;;;;;;;1999.90;999.90;;;15.50;99.90;;;;;;5074421;28;20448;-69
2023/10/29 06:12:45;;;;;;;1999.90;999.90;;;15.50;99.90;;;;;;5073407;28;20307;-69
2023/10/29 06:15:11;;;;;;;1999.90;999.90;;;15.40;99.90;;;;;;5074916;28;20177;-69
2023/10/29 06:17:37;;;;;;;1999.90;999.90;;;15.40;99.90;;;;;;5074637;28;20558;-69
2023/10/29 06:20:04;;;;;;;1999.90;999.90;;;15.30;99.90;;;;;;5074761;28;20421;-69
2023/10/29 06:22:31;;;;;;;1999.90;999.90;;;15.30;99.90;;;;;;5074347;28;20419;-67
2023/10/29 06:24:56;;;;;;;1999.90;999.90;;;15.30;99.90;;;;;;5074826;28;20407;-68
2023/10/29 06:27:22;;;;;;;1999.90;999.90;;;15.30;99.90;;;;;;5074704;28;20913;-67
2023/10/29 06:29:48;;;;;;;1999.90;999.90;;;15.20;99.90;;;;;;5074941;28;20238;-69
2023/10/29 06:32:13;;;;;;;1999.90;999.90;;;15.20;99.90;;;;;;5074437;28;20265;-69
2023/10/29 06:34:39;;;;;;;1999.90;999.90;;;15.20;99.90;;;;;;5074781;28;20181;-69
2023/10/29 06:37:05;;;;;;;1999.90;999.90;;;15.20;99.90;;;;;;5074855;28;20213;-69
2023/10/29 06:39:31;;;;;;;1999.90;999.90;;;15.20;99.90;;;;;;5074720;28;20196;-69
2023/10/29 06:41:57;;;;;;;1999.90;999.90;;;15.20;99.90;;;;;;5074684;28;20193;-68
2023/10/29 06:44:22;;;;;;;1999.90;999.90;;;15.20;99.90;;;;;;5074742;28;20400;-69
2023/10/29 06:46:48;;;;;;;1999.90;999.90;;;15.20;99.90;;;;;;5075081;28;20168;-69
2023/10/29 06:49:13;;;;;;;1999.90;999.90;;;15.20;99.90;;;;;;5074280;28;20623;-69
2023/10/29 06:51:39;;;;;;;1999.90;999.90;;;15.20;99.90;;;;;;5074489;28;20172;-68
2023/10/29 06:54:05;;;;;;;1999.90;999.90;;;15.20;99.90;;;;;;5074232;28;20208;-67
2023/10/29 06:56:31;;;;;;;1999.90;999.90;;;15.20;99.90;;;;;;5074709;28;20586;-70
2023/10/29 06:58:57;;;;;;;1999.90;999.90;;;15.50;99.90;;;;;;5074266;28;20169;-69
2023/10/29 07:01:23;;;;;;;1999.90;999.90;;;15.10;99.90;;;;;;5074004;28;20939;-67
2023/10/29 07:03:48;;;;;;;1999.90;999.90;;;15.10;99.90;;;;;;5074116;28;20178;-69
2023/10/29 07:06:16;;;;;;;1999.90;999.90;;;15.10;99.90;;;;;;5074115;28;20553;-69
2023/10/29 07:08:45;;;;;;;1999.90;999.90;;;15.10;99.90;;;;;;5074028;28;20470;-69
2023/10/29 07:11:10;;;;;;;1999.90;999.90;;;15.10;99.90;;;;;;5073590;28;20970;-69
2023/10/29 07:13:36;;;;;;;1999.90;999.90;;;15.10;99.90;;;;;;5073588;28;20507;-69
2023/10/29 07:16:04;;;;;;;1999.90;999.90;;;15.10;99.90;;;;;;5073763;28;20260;-69
2023/10/29 07:18:29;;;;;;;1999.90;999.90;;;15.10;99.90;;;;;;5073720;28;20174;-69
2023/10/29 07:20:55;;;;;;;1999.90;999.90;;;15.10;99.90;;;;;;5073212;28;20795;-68
2023/10/29 07:23:22;;;;;;;1999.90;999.90;;;15.10;99.90;;;;;;5072003;28;20178;-68
2023/10/29 07:25:49;;;;;;;1999.90;999.90;;;15.00;99.90;;;;;;5073653;28;20253;-69
2023/10/29 07:28:15;;;;;;;1999.90;999.90;;;15.00;99.90;;;;;;5072726;28;20967;-68
2023/10/29 07:30:41;;;;;;;1999.90;999.90;;;14.90;99.90;;;;;;5072363;28;20421;-69
2023/10/29 07:33:09;;;;;;;1999.90;999.90;;;15.00;99.90;;;;;;5072560;28;20849;-68
2023/10/29 07:35:35;;;;;;;1999.90;999.90;;;14.90;99.90;;;;;;5072502;28;20405;-68
2023/10/29 07:38:01;;;;;;;1999.90;999.90;;;15.00;99.90;;;;;;5072561;28;20451;-68
2023/10/29 07:40:26;;;;;;;1999.90;999.90;;;15.00;99.90;;;;;;5072412;28;20438;-68
2023/10/29 07:42:52;;;;;;;1999.90;999.90;;;15.00;99.90;;;;;;5072433;28;20168;-68
2023/10/29 07:45:17;;;;;;;1999.90;999.90;;;15.00;99.90;;;;;;5072450;28;20613;-68
2023/10/29 07:47:43;;;;;;;1999.90;999.90;;;14.90;99.90;;;;;;5072395;28;20175;-68
2023/10/29 07:50:10;;;;;;;1999.90;999.90;;;14.90;99.90;;;;;;5072382;28;20277;-68
2023/10/29 07:52:39;;;;;;;1999.90;999.90;;;14.90;99.90;;;;;;5072206;28;20209;-68
2023/10/29 07:55:06;;;;;;;1999.90;999.90;;;15.00;99.90;;;;;;5072489;28;20506;-68
2023/10/29 07:57:31;;;;;;;1999.90;999.90;;;15.10;99.90;;;;;;5072271;28;20398;-68
2023/10/29 07:59:57;;;;;;;1999.90;999.90;;;15.10;99.90;;;;;;5072229;28;20956;-68
2023/10/29 08:02:23;;;;;;;1999.90;999.90;;;15.10;99.90;;;;;;5071786;28;20596;-68
2023/10/29 08:04:49;;;;;;;1999.90;999.90;;;15.20;99.90;;;;;;5072136;28;20509;-68
2023/10/29 08:07:14;;;;;;;1999.90;999.90;;;15.20;99.90;;;;;;5072122;28;20542;-68
2023/10/29 08:09:40;;;;;;;1999.90;999.90;;;15.20;99.90;;;;;;5071881;28;20202;-68
2023/10/29 08:12:06;;;;;;;1999.90;999.90;;;15.20;99.90;;;;;;5071735;28;20174;-68
2023/10/29 08:14:32;;;;;;;1999.90;999.90;;;15.20;99.90;;;;;;5072080;28;20750;-68
2023/10/29 08:16:57;;;;;;;1999.90;999.90;;;15.30;99.90;;;;;;5072077;28;20551;-68
2023/10/29 08:19:24;;;;;;;1999.90;999.90;;;15.30;99.90;;;;;;5071790;28;20233;-68
2023/10/29 08:21:49;;;;;;;1999.90;999.90;;;15.30;99.90;;;;;;5072025;28;20182;-68
2023/10/29 08:24:15;;;;;;;1999.90;999.90;;;15.30;99.90;;;;;;5071966;28;20413;-68
2023/10/29 08:26:40;;;;;;;1999.90;999.90;;;15.40;99.90;;;;;;5072028;28;20204;-68
2023/10/29 08:29:06;;;;;;;1999.90;999.90;;;15.50;99.90;;;;;;5071857;28;20180;-68
2023/10/29 08:31:32;;;;;;;1999.90;999.90;;;15.40;99.90;;;;;;5071768;28;20745;-68
2023/10/29 08:33:57;;;;;;;1999.90;999.90;;;15.50;99.90;;;;;;5071779;28;20211;-68
2023/10/29 08:36:24;;;;;;;1999.90;999.90;;;15.50;99.90;;;;;;5071377;28;20172;-68
2023/10/29 08:38:49;;;;;;;1999.90;999.90;;;15.50;99.90;;;;;;5071995;28;20258;-68
2023/10/29 08:41:16;;;;;;;1999.90;999.90;;;15.50;99.90;;;;;;5069032;28;20522;-68
2023/10/29 08:43:42;;;;;;;1999.90;999.90;;;15.60;99.90;;;;;;5075519;28;20181;-68
2023/10/29 08:46:08;;;;;;;1999.90;999.90;;;15.50;99.90;;;;;;5081045;28;20849;-68
2023/10/29 08:48:34;;;;;;;1999.90;999.90;;;15.60;99.90;;;;;;5080876;28;20431;-68
2023/10/29 08:50:59;;;;;;;1999.90;999.90;;;15.60;99.90;;;;;;5085741;28;20428;-68
2023/10/29 08:53:25;;;;;;;1999.90;999.90;;;15.60;99.90;;;;;;5088594;28;20213;-68
2023/10/29 08:55:53;;;;;;;1999.90;999.90;;;15.60;99.90;;;;;;5084730;28;20693;-68
2023/10/29 08:58:20;;;;;;;1999.90;999.90;;;15.60;99.90;;;;;;5091791;28;20230;-68
2023/10/29 09:00:46;;;;;;;1999.90;999.90;;;15.60;99.90;;;;;;5091419;28;20923;-68
2023/10/29 09:03:13;;;;;;;1999.90;999.90;;;15.60;99.90;;;;;;5084334;28;20477;-68
2023/10/29 09:05:39;;;;;;;1999.90;999.90;;;15.60;99.90;;;;;;5083046;28;20233;-68
2023/10/29 09:08:05;;;;;;;1999.90;999.90;;;15.70;99.90;;;;;;5092267;28;20486;-66
2023/10/29 09:10:32;;;;;;;1999.90;999.90;;;15.70;99.90;;;;;;5091269;28;20451;-68
2023/10/29 09:12:58;;;;;;;1999.90;999.90;;;15.70;99.90;;;;;;5091610;28;20450;-68
2023/10/29 09:15:24;;;;;;;1999.90;999.90;;;15.70;99.90;;;;;;5092188;28;20400;-67
2023/10/29 09:17:49;;;;;;;1999.90;999.90;;;15.70;99.90;;;;;;5091571;28;20407;-68
2023/10/29 09:20:15;;;;;;;1999.90;999.90;;;15.70;99.90;;;;;;5091556;28;20185;-67
2023/10/29 09:22:40;;;;;;;1999.90;999.90;;;15.70;99.90;;;;;;5088569;28;20180;-67
2023/10/29 09:25:06;;;;;;;1999.90;999.90;;;15.80;99.90;;;;;;5083110;28;20663;-67
2023/10/29 09:27:32;;;;;;;1999.90;999.90;;;15.70;99.90;;;;;;5091516;28;20189;-67
2023/10/29 09:29:57;;;;;;;1999.90;999.90;;;15.70;99.90;;;;;;5080288;28;20444;-68
2023/10/29 09:32:26;;;;;;;1999.90;999.90;;;15.70;99.90;;;;;;5057498;28;20292;-67
2023/10/29 09:34:52;;;;;;;1999.90;999.90;;;15.70;99.90;;;;;;5082889;28;20189;-67
2023/10/29 09:37:18;;;;;;;1999.90;999.90;;;15.70;99.90;;;;;;5079452;28;20413;-67
2023/10/29 09:39:44;;;;;;;1999.90;999.90;;;15.80;99.90;;;;;;5051062;28;20908;-68
2023/10/29 09:42:11;;;;;;;1999.90;999.90;;;15.70;99.90;;;;;;5051017;28;20244;-66
2023/10/29 09:44:40;;;;;;;1999.90;999.90;;;15.70;99.90;;;;;;5051106;28;20642;-68
2023/10/29 09:47:13;;;;;;;1999.90;999.90;;;15.70;99.90;;;;;;5051305;28;20407;-67
2023/10/29 09:49:39;;;;;;;1999.90;999.90;;;15.70;99.90;;;;;;5054601;28;20430;-67
2023/10/29 09:52:06;;;;;;;1999.90;999.90;;;15.70;99.90;;;;;;5054393;28;20440;-67
2023/10/29 09:54:32;;;;;;;1999.90;999.90;;;15.80;99.90;;;;;;5054650;28;20479;-66
2023/10/29 09:56:57;;;;;;;1999.90;999.90;;;15.80;99.90;;;;;;5054499;28;20405;-67
2023/10/29 09:59:23;;;;;;;1999.90;999.90;;;15.90;99.90;;;;;;5054444;28;20554;-68
2023/10/29 10:01:49;;;;;;;1999.90;999.90;;;15.90;99.90;;;;;;5054261;28;20171;-69
2023/10/29 10:04:15;;;;;;;1999.90;999.90;;;16.00;99.90;;;;;;5054778;28;20466;-68
2023/10/29 10:06:42;;;;;;;1999.90;999.90;;;16.00;99.90;;;;;;5054394;28;20292;-68
2023/10/29 10:09:10;;;;;;;1999.90;999.90;;;16.00;99.90;;;;;;5054253;28;20228;-68
2023/10/29 10:11:35;;;;;;;1999.90;999.90;;;16.20;99.90;;;;;;5054066;28;20445;-68
2023/10/29 10:14:01;;;;;;;1999.90;999.90;;;16.20;99.90;;;;;;5054132;28;20446;-69
2023/10/29 10:16:27;;;;;;;1999.90;999.90;;;16.30;99.90;;;;;;5054242;28;20412;-68
2023/10/29 10:18:57;;;;;;;1999.90;999.90;;;16.40;99.90;;;;;;5054125;28;20199;-68
2023/10/29 10:21:44;;;;;;;1999.90;999.90;;;16.60;99.90;;;;;;5053971;28;20262;-68
2023/10/29 10:24:10;;;;;;;1999.90;999.90;;;16.60;99.90;;;;;;5053750;28;20789;-68
2023/10/29 10:26:37;;;;;;;1999.90;999.90;;;16.70;99.90;;;;;;5054263;28;20829;-68
2023/10/29 10:29:04;;;;;;;1999.90;999.90;;;16.90;99.90;;;;;;5054282;28;20418;-69
2023/10/29 10:31:35;;;;;;;1999.90;999.90;;;16.80;99.90;;;;;;5083395;28;20838;-68
2023/10/29 10:34:17;;;;;;;1999.90;999.90;;;16.80;99.90;;;;;;5093972;28;20455;-68
2023/10/29 10:36:49;;;;;;;1999.90;999.90;;;16.70;99.90;;;;;;5089720;28;20404;-69
2023/10/29 10:39:15;;;;;;;1999.90;999.90;;;16.60;99.90;;;;;;5081267;28;20419;-69
2023/10/29 10:41:42;;;;;;;1999.90;999.90;;;16.70;99.90;;;;;;5088043;28;20420;-68
2023/10/29 10:44:13;;;;;;;1999.90;999.90;;;16.70;99.90;;;;;;5088098;28;20423;-68
2023/10/29 10:46:49;;;;;;;1999.90;999.90;;;16.60;99.90;;;;;;5088705;28;20470;-67
2023/10/29 10:49:15;;;;;;;1999.90;999.90;;;16.40;99.90;;;;;;5074361;28;20436;-69
2023/10/29 10:51:40;;;;;;;1999.90;999.90;;;16.50;99.90;;;;;;5079700;28;20413;-69
2023/10/29 10:54:07;;;;;;;1999.90;999.90;;;16.50;99.90;;;;;;5080357;28;20459;-68
2023/10/29 10:56:37;;;;;;;1999.90;999.90;;;16.60;99.90;;;;;;5089490;28;20192;-67
2023/10/29 10:59:07;;;;;;;1999.90;999.90;;;16.90;99.90;;;;;;5089592;28;20506;-68
2023/10/29 11:01:37;;;;;;;1999.90;999.90;;;16.60;99.90;;;;;;5086448;28;21142;-68
2023/10/29 11:04:04;;;;;;;1999.90;999.90;;;16.70;99.90;;;;;;5082680;28;20484;-68
2023/10/29 11:06:31;;;;;;;1999.90;999.90;;;16.70;99.90;;;;;;5089321;28;20458;-68
2023/10/29 11:09:00;;;;;;;1999.90;999.90;;;16.80;99.90;;;;;;5089647;28;21474;-69
2023/10/29 11:11:31;;;;;;;1999.90;999.90;;;16.80;99.90;;;;;;5087936;28;20859;-69
2023/10/29 11:14:13;;;;;;;1999.90;999.90;;;16.90;99.90;;;;;;5088397;28;20484;-69
2023/10/29 11:16:55;;;;;;;1999.90;999.90;;;16.80;99.90;;;;;;5088607;28;20413;-69
2023/10/29 11:19:42;;;;;;;1999.90;999.90;;;16.80;99.90;;;;;;5088718;28;20439;-69
2023/10/29 11:22:31;;;;;;;1999.90;999.90;;;16.80;99.90;;;;;;5089246;28;20462;-68
2023/10/29 11:25:08;;;;;;;1999.90;999.90;;;16.70;99.90;;;;;;5080695;28;20415;-71
2023/10/29 11:27:41;;;;;;;1999.90;999.90;;;16.70;99.90;;;;;;5079992;28;20460;-68
2023/10/29 11:30:19;;;;;;;1999.90;999.90;;;16.80;99.90;;;;;;5088263;28;20424;-69
2023/10/29 11:32:46;;;;;;;1999.90;999.90;;;17.00;99.90;;;;;;5087906;28;20512;-68
2023/10/29 11:35:14;;;;;;;1999.90;999.90;;;17.10;99.90;;;;;;5088799;28;20481;-69
2023/10/29 11:37:41;;;;;;;1999.90;999.90;;;17.20;99.90;;;;;;5088231;28;20406;-69
2023/10/29 11:40:25;;;;;;;1999.90;999.90;;;17.30;99.90;;;;;;5088021;28;20436;-69
2023/10/29 11:42:52;;;;;;;1999.90;999.90;;;17.80;99.90;;;;;;5077665;28;20936;-69
2023/10/29 11:45:27;;;;;;;1999.90;999.90;;;18.30;99.90;;;;;;5076167;28;20417;-68
2023/10/29 11:48:23;;;;;;;1999.90;999.90;;;18.50;99.90;;;;;;5068578;28;20425;-68
2023/10/29 11:51:05;;;;;;;1999.90;999.90;;;18.30;99.90;;;;;;5058566;28;20453;-68
2023/10/29 11:53:31;;;;;;;1999.90;999.90;;;18.20;99.90;;;;;;5076697;28;20531;-68
2023/10/29 11:56:03;;;;;;;1999.90;999.90;;;18.20;99.90;;;;;;5080275;28;20506;-68